OISY  Yasouj Airport

Add Bookmark

Iran

Status
Operational
Latitude Longitude
30° 42' 1" N 51° 32' 42" E
30.700500 51.545101
Local (DST + 5) UTC (GMT + 4)
Oct 31, 2014 02:22 Oct 30, 2014 22:52
Sunrise-Sunset Local UTC
Begin Civil Twilight 05:51 02:21
Sunrise 06:16 02:46
Sunset 05:18 13:48
End Civil Twilight 05:42 14:12

Current Weather

METAR Observed MVFR
OISY 302200Z 09010KT 7000 -RA FEW035CB SCT040 BKN090 10/05 Q1022 Thu, Oct 30, 2014 @ 22:00 UTC
(52 Minutes ago)
Marginal Visual Flight Rules
Wind Visibility Clouds Conditions
090° at 10 knots (19 kph) 7000 meters
  • Few at 3,500' AGL
  • Scattered at 4,000' AGL
  • Broken at 9,000' AGL
  • Light Rain
Temperatures Readings Precipitation
Current Temp 10°C (50°F)
Dewpoint 5°C (41°F)
Humidity 71%
Altimeter 30.18"Hg
Sea Level Pressure 1022mb
Field Elevation 5941.6'
None Recorded

Additional weather within a 92.6km radius of OISY

Map ICAO Location
OIAH 79.6km W (240°)

24 Hour Weather History

Loading
-

24 Hour Weather Graphs

Loading
-

CheckWX.com is intended as a tool to help pilots better visualize weather data. It is not intended as a substitute for an official weather briefing obtained from a Flight Service Station. CheckWX.com does not meet the FAA requirements for an official pre-flight weather briefing. Therefore, it's important that pilots still call and obtain an official FSS pre-flight weather briefing.